Williston, ND

2:28 AM CDT on September 05, 2015 (GMT -0500)
Valhalla | | Change Station
CLOSE
Current Station
Personal Weather Station
Location: Williston, ND
Elevation: 2040 ft
Nearby Weather Stations

Elev 2040 ft 48.33 °N, 103.62 °W | Updated 49 seconds ago

Overcast
Overcast
57.7 °F
Feels Like 57.7 °F
N
2.5
Wind Variable Wind from North
Gusts 4.9 mph

Today
High -- | Low -- °F
--% Chance of Precip.
Yesterday
High -- | Low -- °F
Precip. -- in
7:17 AM 8:28 PM
Waning Gibbous, 51% visible
Pressure 29.91 in
Visibility 10.0 miles
Clouds Overcast 800 ft
Dew Point 57 °F
Humidity 98%
Rainfall 0.00 in
Snow Depth Not available.
UV 0 out of 12
Pollen 9.90 out of 12
Air Quality Not available.
Flu Activity Not available.
METAR KISN 050652Z AUTO 02014KT 10SM OVC008 16/13 A2991 RMK AO2 SLP126 T01560133
Pressure 29.91 in
Visibility 10.0 miles
Clouds Overcast 800 ft
Dew Point 57 °F
Humidity 98%
Rainfall 0.00 in
Snow Depth Not available.
UV 0 out of 12
Pollen 9.90 out of 12
Air Quality Not available.
Flu Activity Not available.
METAR KISN 050652Z AUTO 02014KT 10SM OVC008 16/13 A2991 RMK AO2 SLP126 T01560133

10-Day Weather Forecast

×

Almanac

Astronomy

Sep. 05, 2015 Rise Set
Actual Time
Civil Twilight
Nautical Twilight
Astronomical Twilight
Moon
Length of Visible Light
Length of Day
Tomorrow will be .
, % of the Moon is Illuminated

Today's Extremes

State Highs State Lows

Community

WunderPhotos

Upload Photos

1,852,430 photos uploaded!

WunderBlogs® & News

Nearby

Air Quality

  Air Quality AQ Index Pollutant
Not available.

Snow Depth

Station Depth Elevation

Earthquake Activity

City Distance Mag. Time & Date
Minimum magnitude displayed is 2.5.

Coastal Water Temperatures

Place Temperature

Stations

Nearby Weather Stations

Station Location Temp. Windchill Dew Point Humidity Wind Precip. Elev Updated Type